Time;durP1;ratioP1;P1;durP2;ratioP2;P2;SDS_P1;SDS_P2;PMS_P1;PMS_P2;Temp;Humidity;BMP_temperature;BMP_pressure;BME280_temperature;BME280_humidity;BME280_pressure;Samples;Min_cycle;Max_cycle;Signal;HPM_P1;HPM_P2
2022/07/17 00:01:22;;;;;;;;;;;;;;;28.52;27.92;94890.16;4962548;28;9153;-63
2022/07/17 00:03:49;;;;;;;;;;;;;;;28.51;27.79;94894.22;4967063;28;6992;-62
2022/07/17 00:06:17;;;;;;;;;;;;;;;28.51;27.93;94891.44;4950657;28;7066;-62
2022/07/17 00:08:45;;;;;;;;;;;;;;;28.49;28.11;94891.22;4928374;28;8783;-62
2022/07/17 00:11:12;;;;;;;;;;;;;;;28.50;28.15;94906.53;4938702;28;7783;-63
2022/07/17 00:13:38;;;;;;;;;;;;;;;28.49;28.23;94890.47;4950037;28;7231;-63
2022/07/17 00:16:07;;;;;;;;;;;;;;;28.47;28.10;94893.72;4939980;28;6952;-63
2022/07/17 00:18:42;;;;;;;;;;;;;;;28.45;28.57;94890.72;4968794;28;7246;-63
2022/07/17 00:21:08;;;;;;;;;;;;;;;28.44;28.11;94888.47;4953250;28;7421;-63
2022/07/17 00:23:34;;;;;;;;;;;;;;;28.43;28.16;94884.22;4943865;28;7487;-63
2022/07/17 00:26:02;;;;;;;;;;;;;;;28.44;28.13;94889.25;4965501;28;8809;-63
2022/07/17 00:28:29;;;;;;;;;;;;;;;28.43;28.25;94884.97;4999956;28;9851;-63
2022/07/17 00:30:55;;;;;;;;;;;;;;;28.40;28.26;94893.56;5008759;28;7156;-63
2022/07/17 00:33:22;;;;;;;;;;;;;;;28.41;27.95;94898.56;5004863;28;7247;-63
2022/07/17 00:35:53;;;;;;;;;;;;;;;28.41;28.28;94895.03;4990762;28;7100;-63
2022/07/17 00:38:21;;;;;;;;;;;;;;;28.40;28.27;94896.31;4994372;28;9003;-63
2022/07/17 00:40:47;;;;;;;;;;;;;;;28.40;28.38;94893.56;5011422;28;8358;-63
2022/07/17 00:43:14;;;;;;;;;;;;;;;28.36;28.24;94891.09;5008580;28;6968;-63
2022/07/17 00:45:46;;;;;;;;;;;;;;;28.33;28.31;94890.09;4997582;28;7100;-63
2022/07/17 00:48:14;;;;;;;;;;;;;;;28.33;28.51;94892.09;4990612;28;8766;-63
2022/07/17 00:50:42;;;;;;;;;;;;;;;28.31;28.00;94891.88;5013634;28;7640;-63
2022/07/17 00:53:08;;;;;;;;;;;;;;;28.31;28.40;94891.88;5004905;28;7169;-63
2022/07/17 00:55:36;;;;;;;;;;;;;;;28.29;28.43;94888.88;5014005;28;9490;-63
2022/07/17 00:58:12;;;;;;;;;;;;;;;28.28;28.37;94882.59;5007768;28;7222;-63
2022/07/17 01:00:38;;;;;;;;;;;;;;;28.31;28.82;94889.13;5008124;28;9096;-63
2022/07/17 01:03:04;;;;;;;;;;;;;;;28.29;28.27;94892.41;5006526;28;7191;-63
2022/07/17 01:05:32;;;;;;;;;;;;;;;28.30;28.22;94890.38;5012435;28;9753;-63
2022/07/17 01:07:59;;;;;;;;;;;;;;;28.28;28.39;94892.91;4994172;28;7908;-63
2022/07/17 01:10:32;;;;;;;;;;;;;;;28.28;28.48;94887.38;4983090;28;8945;-63
2022/07/17 01:13:30;;;;;;;;;;;;;;;28.25;28.52;94891.19;4993601;28;7159;-63
2022/07/17 01:16:07;;;;;;;;;;;;;;;28.25;28.18;94893.94;4957532;28;9518;-63
2022/07/17 01:18:33;;;;;;;;;;;;;;;28.24;28.44;94892.44;4957995;28;9440;-63
2022/07/17 01:21:07;;;;;;;;;;;;;;;28.24;28.80;94890.44;4949086;28;7287;-63
2022/07/17 01:24:07;;;;;;;;;;;;;;;28.25;28.71;94888.41;4939183;28;9448;-63
2022/07/17 01:26:48;;;;;;;;;;;;;;;28.22;29.08;94887.44;4893539;29;8857;-63
2022/07/17 01:29:39;;;;;;;;;;;;;;;28.24;28.75;94889.66;4912575;29;7239;-63
2022/07/17 01:32:08;;;;;;;;;;;;;;;28.23;28.85;94888.19;4900578;29;7217;-63
2022/07/17 01:34:36;;;;;;;;;;;;;;;28.22;28.85;94889.44;4891033;29;9356;-63
2022/07/17 01:37:18;;;;;;;;;;;;;;;28.21;28.85;94876.88;4893779;29;7306;-63
2022/07/17 01:39:55;;;;;;;;;;;;;;;28.21;29.19;94882.41;4908210;29;7416;-63
2022/07/17 01:42:23;;;;;;;;;;;;;;;28.21;28.72;94887.94;4904181;29;7558;-63
2022/07/17 01:44:53;;;;;;;;;;;;;;;28.20;28.52;94880.91;4905848;29;7206;-63
2022/07/17 01:47:19;;;;;;;;;;;;;;;28.17;29.27;94885.47;4910871;29;7348;-63
2022/07/17 01:49:51;;;;;;;;;;;;;;;28.18;28.94;94886.97;4893268;29;7088;-63
2022/07/17 01:52:18;;;;;;;;;;;;;;;28.18;28.90;94891.75;4904247;29;7244;-63
2022/07/17 01:54:44;;;;;;;;;;;;;;;28.18;28.99;94892.50;4927612;28;7297;-63
2022/07/17 01:57:11;;;;;;;;;;;;;;;28.16;29.14;94888.75;4945556;28;9203;-63
2022/07/17 01:59:40;;;;;;;;;;;;;;;28.14;29.06;94894.78;4930429;29;9156;-63
2022/07/17 02:02:07;;;;;;;;;;;;;;;28.10;28.96;94882.53;4972173;28;7247;-63
2022/07/17 02:04:41;;;;;;;;;;;;;;;28.12;29.14;94882.75;4989904;28;6992;-63
2022/07/17 02:07:12;;;;;;;;;;;;;;;28.10;29.15;94885.28;4993219;28;8292;-63
2022/07/17 02:09:39;;;;;;;;;;;;;;;28.09;28.67;94881.75;4989235;28;7238;-63
2022/07/17 02:12:05;;;;;;;;;;;;;;;28.08;28.94;94879.50;4992439;28;7107;-63
2022/07/17 02:14:37;;;;;;;;;;;;;;;28.08;29.04;94871.94;4992503;28;7089;-63
2022/07/17 02:17:30;;;;;;;;;;;;;;;28.08;29.39;94869.19;5014008;28;7045;-63
2022/07/17 02:19:56;;;;;;;;;;;;;;;28.09;29.43;94881.00;4938603;28;9227;-63
2022/07/17 02:22:36;;;;;;;;;;;;;;;28.08;29.16;94882.25;4963072;28;7227;-63
2022/07/17 02:25:10;;;;;;;;;;;;;;;28.05;28.98;94873.00;4925050;28;8757;-63
2022/07/17 02:27:38;;;;;;;;;;;;;;;28.03;29.44;94872.78;4945224;28;7275;-64
2022/07/17 02:30:08;;;;;;;;;;;;;;;28.02;29.43;94871.25;4935336;28;7167;-63
2022/07/17 02:32:34;;;;;;;;;;;;;;;28.03;28.67;94872.00;4948835;28;9824;-63
2022/07/17 02:35:00;;;;;;;;;;;;;;;28.00;29.63;94870.28;4965600;28;6986;-63
2022/07/17 02:37:37;;;;;;;;;;;;;;;28.00;29.34;94861.97;4934552;28;8790;-63
2022/07/17 02:40:04;;;;;;;;;;;;;;;27.99;29.36;94860.50;4946896;28;7383;-63
2022/07/17 02:42:30;;;;;;;;;;;;;;;27.99;29.42;94860.50;4945509;28;9100;-63
2022/07/17 02:44:58;;;;;;;;;;;;;;;27.96;29.58;94861.47;4922893;28;7183;-63
2022/07/17 02:47:29;;;;;;;;;;;;;;;27.96;29.20;94855.94;4930704;28;9372;-63
2022/07/17 02:49:58;;;;;;;;;;;;;;;27.95;29.72;94854.47;4953889;28;7188;-63
2022/07/17 02:52:24;;;;;;;;;;;;;;;27.97;29.64;94852.69;4937335;28;7583;-63
2022/07/17 02:54:58;;;;;;;;;;;;;;;27.95;29.00;94848.94;4953388;28;8589;-63
2022/07/17 02:57:30;;;;;;;;;;;;;;;27.95;29.47;94860.72;5003329;28;8168;-62
2022/07/17 02:59:56;;;;;;;;;;;;;;;27.95;29.44;94851.69;4997783;28;7231;-63
2022/07/17 03:02:52;;;;;;;;;;;;;;;27.92;29.56;94855.47;4978016;28;9359;-63
2022/07/17 03:05:19;;;;;;;;;;;;;;;27.92;29.60;94855.47;4910824;29;9029;-63
2022/07/17 03:07:45;;;;;;;;;;;;;;;27.90;29.53;94852.47;4923991;29;7319;-63
2022/07/17 03:10:13;;;;;;;;;;;;;;;27.90;29.71;94852.47;4927657;29;9433;-63
2022/07/17 03:12:39;;;;;;;;;;;;;;;27.91;29.53;94856.72;4929620;28;6949;-63
2022/07/17 03:15:11;;;;;;;;;;;;;;;27.89;29.71;94856.50;4928148;28;7327;-63
2022/07/17 03:17:43;;;;;;;;;;;;;;;27.86;29.56;94849.25;4919690;29;9494;-63
2022/07/17 03:20:10;;;;;;;;;;;;;;;27.86;29.71;94844.44;4902248;29;7262;-63
2022/07/17 03:22:36;;;;;;;;;;;;;;;27.85;29.80;94858.78;4916189;28;8962;-63
2022/07/17 03:25:11;;;;;;;;;;;;;;;27.83;29.95;94851.03;4932678;28;8990;-63
2022/07/17 03:27:38;;;;;;;;;;;;;;;27.84;29.69;94840.72;4930465;29;7175;-63
2022/07/17 03:30:07;;;;;;;;;;;;;;;27.84;29.87;94846.25;4931151;29;8820;-63
2022/07/17 03:32:33;;;;;;;;;;;;;;;27.82;29.81;94854.31;4910445;29;9067;-63
2022/07/17 03:35:02;;;;;;;;;;;;;;;27.80;29.78;94851.28;4916611;29;6992;-63
2022/07/17 03:37:43;;;;;;;;;;;;;;;27.79;30.10;94849.81;4924440;28;7267;-63
2022/07/17 03:40:09;;;;;;;;;;;;;;;27.78;30.21;94853.81;4917628;28;7706;-63
2022/07/17 03:42:36;;;;;;;;;;;;;;;27.76;29.88;94853.59;4970507;28;7237;-63
2022/07/17 03:45:02;;;;;;;;;;;;;;;27.77;29.58;94849.56;4995506;28;6985;-63
2022/07/17 03:47:32;;;;;;;;;;;;;;;27.75;29.86;94854.88;5009379;28;7256;-63
2022/07/17 03:50:00;;;;;;;;;;;;;;;27.75;30.20;94860.41;4986650;28;9379;-63
2022/07/17 03:52:28;;;;;;;;;;;;;;;27.72;30.33;94853.13;4994658;28;9088;-63
2022/07/17 03:54:56;;;;;;;;;;;;;;;27.72;29.97;94853.13;5011645;28;9262;-63
2022/07/17 03:57:26;;;;;;;;;;;;;;;27.68;29.57;94850.66;4995762;28;9208;-63
2022/07/17 04:00:28;;;;;;;;;;;;;;;27.69;29.92;94854.16;4978162;28;7195;-63
2022/07/17 04:02:54;;;;;;;;;;;;;;;27.67;30.07;94854.66;4969359;28;7071;-63
2022/07/17 04:05:32;;;;;;;;;;;;;;;27.67;29.87;94853.91;4942350;28;7059;-63
2022/07/17 04:07:59;;;;;;;;;;;;;;;27.67;29.87;94851.13;4938224;28;7043;-63
2022/07/17 04:10:35;;;;;;;;;;;;;;;27.66;29.82;94860.72;4965563;28;9450;-63
2022/07/17 04:13:12;;;;;;;;;;;;;;;27.63;30.10;94862.47;4968742;28;8201;-63
2022/07/17 04:15:56;;;;;;;;;;;;;;;27.61;29.89;94860.25;4946876;28;8792;-63
2022/07/17 04:18:25;;;;;;;;;;;;;;;27.60;30.15;94861.50;4943704;28;6963;-63
2022/07/17 04:20:58;;;;;;;;;;;;;;;27.59;29.95;94871.06;4954336;28;8408;-63
2022/07/17 04:23:28;;;;;;;;;;;;;;;27.58;29.88;94861.25;4969234;28;9050;-63
2022/07/17 04:26:06;;;;;;;;;;;;;;;27.55;30.01;94862.28;4948976;28;6946;-63
2022/07/17 04:28:57;;;;;;;;;;;;;;;27.56;30.12;94869.31;4956538;28;7300;-63
2022/07/17 04:31:25;;;;;;;;;;;;;;;27.53;30.27;94867.56;4954430;28;7076;-63
2022/07/17 04:33:54;;;;;;;;;;;;;;;27.54;30.43;94871.84;4954899;28;8785;-63
2022/07/17 04:36:20;;;;;;;;;;;;;;;27.53;29.94;94859.25;4965700;28;7507;-63
2022/07/17 04:38:46;;;;;;;;;;;;;;;27.54;30.31;94865.56;5006606;28;7831;-63
2022/07/17 04:41:14;;;;;;;;;;;;;;;27.53;30.03;94875.13;5014336;28;7092;-63
2022/07/17 04:43:40;;;;;;;;;;;;;;;27.50;30.63;94857.53;5001545;28;7341;-63
2022/07/17 04:46:06;;;;;;;;;;;;;;;27.51;30.37;94869.34;5010509;28;9518;-63
2022/07/17 04:48:51;;;;;;;;;;;;;;;27.49;30.78;94871.88;5009860;28;8212;-63
2022/07/17 04:51:20;;;;;;;;;;;;;;;27.49;30.85;94869.13;4985446;28;7005;-63
2022/07/17 04:53:55;;;;;;;;;;;;;;;27.46;31.10;94870.88;5006853;28;8775;-63
2022/07/17 04:56:26;;;;;;;;;;;;;;;27.44;30.98;94865.13;5012758;28;9181;-63
2022/07/17 04:58:54;;;;;;;;;;;;;;;27.46;30.73;94864.59;5011268;28;9495;-63
2022/07/17 05:01:26;;;;;;;;;;;;;;;27.45;31.28;94863.09;5007883;28;9044;-63
2022/07/17 05:04:04;;;;;;;;;;;;;;;27.43;30.96;94866.38;5011110;28;7226;-63
2022/07/17 05:06:44;;;;;;;;;;;;;;;27.42;31.59;94870.41;5001139;28;7842;-63
2022/07/17 05:09:10;;;;;;;;;;;;;;;27.42;31.28;94859.38;5000259;28;9095;-63
2022/07/17 05:11:40;;;;;;;;;;;;;;;27.42;30.73;94864.88;5013022;28;7701;-63
2022/07/17 05:14:08;;;;;;;;;;;;;;;27.42;30.75;94864.88;4991066;28;7112;-63
2022/07/17 05:16:35;;;;;;;;;;;;;;;27.44;31.26;94875.41;4996901;28;8575;-63
2022/07/17 05:19:01;;;;;;;;;;;;;;;27.41;31.16;94871.66;5003228;28;7183;-63
2022/07/17 05:21:28;;;;;;;;;;;;;;;27.44;31.18;94876.19;4985992;28;7245;-63
2022/07/17 05:23:54;;;;;;;;;;;;;;;27.43;30.94;94882.19;4997056;28;7232;-63
2022/07/17 05:26:35;;;;;;;;;;;;;;;27.45;30.97;94882.44;4992802;28;7266;-63
2022/07/17 05:29:03;;;;;;;;;;;;;;;27.42;31.09;94870.41;5000256;28;7591;-63
2022/07/17 05:31:30;;;;;;;;;;;;;;;27.41;31.21;94863.38;5006283;28;7277;-63
2022/07/17 05:33:58;;;;;;;;;;;;;;;27.41;31.34;94866.13;4996487;28;7983;-63
2022/07/17 05:36:26;;;;;;;;;;;;;;;27.39;31.33;94865.91;5006403;28;7134;-63
2022/07/17 05:38:55;;;;;;;;;;;;;;;27.40;31.72;94864.66;4990930;28;7886;-63
2022/07/17 05:41:21;;;;;;;;;;;;;;;27.41;31.05;94868.91;5004912;28;7258;-63
2022/07/17 05:43:47;;;;;;;;;;;;;;;27.42;31.54;94869.66;5015632;28;7162;-63
2022/07/17 05:46:12;;;;;;;;;;;;;;;27.40;31.89;94864.66;5023428;28;7092;-62
2022/07/17 05:48:41;;;;;;;;;;;;;;;27.41;31.35;94871.66;5013349;28;6992;-63
2022/07/17 05:51:09;;;;;;;;;;;;;;;27.39;31.37;94868.66;4992170;28;9027;-64
2022/07/17 05:53:35;;;;;;;;;;;;;;;27.43;31.85;94860.09;4984918;28;7208;-63
2022/07/17 05:56:02;;;;;;;;;;;;;;;27.45;31.56;94869.38;4977852;28;8734;-63
2022/07/17 05:58:28;;;;;;;;;;;;;;;27.45;31.24;94861.09;5006794;28;7048;-63
2022/07/17 06:00:54;;;;;;;;;;;;;;;27.47;31.93;94866.84;4992250;28;9491;-63
2022/07/17 06:03:24;;;;;;;;;;;;;;;27.49;31.93;94875.38;5011554;28;9163;-63
2022/07/17 06:05:51;;;;;;;;;;;;;;;27.50;32.35;94874.13;4998388;28;7212;-63
2022/07/17 06:08:19;;;;;;;;;;;;;;;27.47;32.24;94872.38;5009824;28;9028;-63
2022/07/17 06:10:48;;;;;;;;;;;;;;;27.53;31.89;94870.31;4989380;28;7628;-62
2022/07/17 06:13:14;;;;;;;;;;;;;;;27.53;31.54;94870.31;5015481;28;7241;-63
2022/07/17 06:15:39;;;;;;;;;;;;;;;27.54;31.96;94877.34;4972287;28;7317;-63
2022/07/17 06:18:05;;;;;;;;;;;;;;;27.53;31.85;94875.84;5004548;28;7252;-63
2022/07/17 06:20:31;;;;;;;;;;;;;;;27.50;31.99;94874.13;4989052;28;9251;-62
2022/07/17 06:22:59;;;;;;;;;;;;;;;27.51;31.54;94883.91;4990416;28;6940;-62
2022/07/17 06:25:27;;;;;;;;;;;;;;;27.54;31.72;94876.59;5006333;28;7412;-63
2022/07/17 06:28:05;;;;;;;;;;;;;;;27.50;32.32;94884.41;4990478;28;9155;-63
2022/07/17 06:30:53;;;;;;;;;;;;;;;27.49;32.60;94891.22;5008483;28;7028;-63
2022/07/17 06:33:30;;;;;;;;;;;;;;;27.47;33.28;94888.22;5010673;28;7237;-63
2022/07/17 06:36:07;;;;;;;;;;;;;;;27.49;32.77;94889.19;5013422;28;7089;-63
2022/07/17 06:38:33;;;;;;;;;;;;;;;27.50;33.27;94884.41;4995597;28;8410;-63
2022/07/17 06:41:01;;;;;;;;;;;;;;;27.51;32.60;94899.75;4994660;28;7004;-62
2022/07/17 06:43:27;;;;;;;;;;;;;;;27.51;33.52;94897.72;5009518;28;7084;-62
2022/07/17 06:45:54;;;;;;;;;;;;;;;27.50;32.97;94901.00;4994454;28;9009;-63
2022/07/17 06:48:21;;;;;;;;;;;;;;;27.49;32.97;94897.47;5006569;28;7213;-63
2022/07/17 06:51:05;;;;;;;;;;;;;;;27.50;32.90;94904.50;5010440;28;7216;-62
2022/07/17 06:53:31;;;;;;;;;;;;;;;27.49;32.58;94899.50;4990412;28;7709;-62
2022/07/17 06:56:16;;;;;;;;;;;;;;;27.49;32.83;94908.53;5011571;28;7242;-63
2022/07/17 06:58:42;;;;;;;;;;;;;;;27.50;32.86;94904.50;4991169;28;7248;-63
2022/07/17 07:01:35;;;;;;;;;;;;;;;27.50;32.18;94907.28;4991885;28;8820;-63
2022/07/17 07:04:11;;;;;;;;;;;;;;;27.48;32.46;94906.28;4952929;28;9428;-62
2022/07/17 07:06:48;;;;;;;;;;;;;;;27.50;32.59;94910.03;4963335;28;8751;-62
2022/07/17 07:09:15;;;;;;;;;;;;;;;27.51;32.27;94910.81;4929349;28;7425;-62
2022/07/17 07:11:41;;;;;;;;;;;;;;;27.51;32.61;94914.28;4960471;28;7161;-62
2022/07/17 07:14:16;;;;;;;;;;;;;;;27.51;32.91;94919.09;4929118;28;9455;-62
2022/07/17 07:16:44;;;;;;;;;;;;;;;27.52;32.95;94920.56;4947299;28;7280;-62
2022/07/17 07:19:18;;;;;;;;;;;;;;;27.52;33.03;94921.34;4955031;28;7368;-62
2022/07/17 07:21:47;;;;;;;;;;;;;;;27.52;32.88;94924.09;4946719;28;7198;-62
2022/07/17 07:24:13;;;;;;;;;;;;;;;27.50;32.98;94926.63;4939199;28;8052;-62
2022/07/17 07:26:42;;;;;;;;;;;;;;;27.50;32.77;94928.63;4940307;28;7355;-62
2022/07/17 07:29:13;;;;;;;;;;;;;;;27.50;33.22;94928.63;4946755;28;7012;-62
2022/07/17 07:31:41;;;;;;;;;;;;;;;27.52;33.05;94929.63;4920536;28;9494;-63
2022/07/17 07:34:07;;;;;;;;;;;;;;;27.54;32.52;94920.81;4929920;28;7422;-62
2022/07/17 07:36:35;;;;;;;;;;;;;;;27.52;32.27;94926.84;4928254;28;7241;-62
2022/07/17 07:39:03;;;;;;;;;;;;;;;27.53;32.45;94924.84;4935143;28;7166;-62
2022/07/17 07:41:29;;;;;;;;;;;;;;;27.51;32.36;94917.06;4990118;28;9672;-62
2022/07/17 07:43:54;;;;;;;;;;;;;;;27.52;31.66;94926.09;5005014;28;7235;-62
2022/07/17 07:46:21;;;;;;;;;;;;;;;27.51;32.40;94922.56;4994709;28;8768;-62
2022/07/17 07:48:46;;;;;;;;;;;;;;;27.52;32.49;94918.56;5005638;28;7435;-62
2022/07/17 07:51:12;;;;;;;;;;;;;;;27.53;32.16;94930.38;4988838;28;8074;-62
2022/07/17 07:53:39;;;;;;;;;;;;;;;27.49;32.22;94925.09;4988878;28;8888;-62
2022/07/17 07:56:08;;;;;;;;;;;;;;;27.52;32.51;94924.09;4989893;28;7127;-62
2022/07/17 07:58:43;;;;;;;;;;;;;;;27.54;32.89;94935.38;4982863;28;9310;-63
2022/07/17 08:01:13;;;;;;;;;;;;;;;27.56;32.42;94935.63;4994950;28;7484;-62
2022/07/17 08:03:39;;;;;;;;;;;;;;;27.57;33.41;94933.63;4992038;28;7005;-63
2022/07/17 08:06:17;;;;;;;;;;;;;;;27.56;32.89;94935.63;4992076;28;7218;-62
2022/07/17 08:08:54;;;;;;;;;;;;;;;27.57;32.63;94928.84;4977697;28;9516;-63
2022/07/17 08:11:27;;;;;;;;;;;;;;;27.59;32.50;94937.38;4992181;28;9044;-62
2022/07/17 08:13:55;;;;;;;;;;;;;;;27.59;32.62;94931.09;4989684;28;8425;-62
2022/07/17 08:16:22;;;;;;;;;;;;;;;27.60;32.77;94935.34;4989071;28;9169;-62
2022/07/17 08:18:49;;;;;;;;;;;;;;;27.60;32.70;94938.09;4987389;28;6982;-62
2022/07/17 08:21:18;;;;;;;;;;;;;;;27.60;32.74;94936.09;5005090;28;7005;-62
2022/07/17 08:23:53;;;;;;;;;;;;;;;27.62;33.03;94933.56;5004625;28;8708;-62
2022/07/17 08:26:19;;;;;;;;;;;;;;;27.62;32.19;94930.81;4983838;28;8910;-62
2022/07/17 08:28:46;;;;;;;;;;;;;;;27.63;32.42;94935.09;4998566;28;7068;-62
2022/07/17 08:31:25;;;;;;;;;;;;;;;27.64;32.57;94930.31;4989104;28;7135;-62
2022/07/17 08:33:55;;;;;;;;;;;;;;;27.63;32.63;94929.56;4992086;28;6961;-62
2022/07/17 08:36:32;;;;;;;;;;;;;;;27.67;32.54;94936.81;4989216;28;8678;-62
2022/07/17 08:38:57;;;;;;;;;;;;;;;27.66;32.55;94935.31;4987607;28;7050;-62
2022/07/17 08:41:27;;;;;;;;;;;;;;;27.68;32.14;94935.56;4990981;28;7360;-62
2022/07/17 08:43:54;;;;;;;;;;;;;;;27.63;32.36;94937.84;4997991;28;7356;-62
2022/07/17 08:46:44;;;;;;;;;;;;;;;27.69;32.77;94948.13;4984161;28;7970;-62
2022/07/17 08:49:21;;;;;;;;;;;;;;;27.69;32.08;94940.56;4985432;28;7276;-63
2022/07/17 08:51:52;;;;;;;;;;;;;;;27.68;32.52;94941.84;5006724;28;7386;-63
2022/07/17 08:54:22;;;;;;;;;;;;;;;27.69;32.46;94940.56;4992481;28;9268;-63
2022/07/17 08:56:48;;;;;;;;;;;;;;;27.70;32.69;94938.56;5008390;28;9286;-63
2022/07/17 08:59:14;;;;;;;;;;;;;;;27.69;32.60;94945.38;4977777;28;7004;-63
2022/07/17 09:01:40;;;;;;;;;;;;;;;27.71;32.75;94951.13;4979585;28;8989;-63
2022/07/17 09:04:11;;;;;;;;;;;;;;;27.71;32.72;94951.13;4976234;28;7244;-64
2022/07/17 09:06:40;;;;;;;;;;;;;;;27.73;32.60;94948.59;4990305;28;9483;-64
2022/07/17 09:09:14;;;;;;;;;;;;;;;27.72;32.71;94949.84;4993350;28;9078;-63
2022/07/17 09:11:52;;;;;;;;;;;;;;;27.73;32.38;94956.91;4993037;28;9723;-63
2022/07/17 09:14:46;;;;;;;;;;;;;;;27.74;33.18;94955.63;5004705;28;9229;-63
2022/07/17 09:17:20;;;;;;;;;;;;;;;27.74;33.19;94944.56;5009987;28;7173;-63
2022/07/17 09:19:49;;;;;;;;;;;;;;;27.74;33.05;94950.09;4989343;28;6993;-63
2022/07/17 09:22:16;;;;;;;;;;;;;;;27.76;33.10;94947.56;5001681;28;7407;-63
2022/07/17 09:24:47;;;;;;;;;;;;;;;27.76;33.54;94944.81;4983049;28;7213;-63
2022/07/17 09:27:27;;;;;;;;;;;;;;;27.76;33.20;94942.03;4982055;28;7678;-64
2022/07/17 09:29:58;;;;;;;;;;;;;;;27.77;32.92;94941.53;4989324;28;8662;-63
2022/07/17 09:32:29;;;;;;;;;;;;;;;27.78;33.19;94942.28;4983848;28;7322;-63
2022/07/17 09:34:58;;;;;;;;;;;;;;;27.76;33.48;94942.78;4990310;28;9592;-62
2022/07/17 09:37:34;;;;;;;;;;;;;;;27.79;32.58;94947.31;5004612;28;8899;-62
2022/07/17 09:40:01;;;;;;;;;;;;;;;27.80;33.20;94951.56;4988794;28;7236;-61
2022/07/17 09:42:33;;;;;;;;;;;;;;;27.79;33.37;94955.59;5002709;28;7334;-62
2022/07/17 09:45:08;;;;;;;;;;;;;;;27.80;33.38;94951.56;4982362;28;9097;-62
2022/07/17 09:47:37;;;;;;;;;;;;;;;27.80;32.88;94953.56;4981488;28;7238;-61
2022/07/17 09:50:06;;;;;;;;;;;;;;;27.80;33.81;94948.78;4995219;28;7257;-61
2022/07/17 09:52:37;;;;;;;;;;;;;;;27.81;33.44;94955.84;4995416;28;8915;-62
2022/07/17 09:55:05;;;;;;;;;;;;;;;27.83;32.94;94952.56;5002344;28;9112;-62
2022/07/17 09:57:47;;;;;;;;;;;;;;;27.85;33.68;94950.03;4994396;28;7349;-62
2022/07/17 10:00:26;;;;;;;;;;;;;;;27.85;33.21;94944.50;5001719;28;7235;-61
2022/07/17 10:02:58;;;;;;;;;;;;;;;27.86;32.99;94946.00;5004037;28;7203;-63
2022/07/17 10:05:32;;;;;;;;;;;;;;;27.85;33.08;94950.03;4996264;28;9304;-62
2022/07/17 10:08:00;;;;;;;;;;;;;;;27.86;33.41;94954.31;4992291;28;9920;-62
2022/07/17 10:10:43;;;;;;;;;;;;;;;27.87;33.70;94945.50;4988248;28;7231;-61
2022/07/17 10:13:17;;;;;;;;;;;;;;;27.88;33.30;94943.47;4985348;28;9032;-62
2022/07/17 10:15:47;;;;;;;;;;;;;;;27.88;33.36;94944.25;4990726;28;6996;-62
2022/07/17 10:18:44;;;;;;;;;;;;;;;27.91;33.13;94945.22;4982945;28;7375;-62
2022/07/17 10:21:19;;;;;;;;;;;;;;;27.92;33.48;94935.66;4946957;28;9161;-62
2022/07/17 10:24:22;;;;;;;;;;;;;;;27.92;33.45;94935.66;4967816;28;9368;-62
2022/07/17 10:26:53;;;;;;;;;;;;;;;27.93;32.96;94937.91;4863208;29;8176;-63
2022/07/17 10:29:38;;;;;;;;;;;;;;;27.95;33.64;94937.41;4858828;29;9017;-63
2022/07/17 10:32:16;;;;;;;;;;;;;;;27.93;33.64;94939.91;4858395;29;7569;-63
2022/07/17 10:34:47;;;;;;;;;;;;;;;27.95;33.82;94948.47;4862969;29;7259;-62
2022/07/17 10:37:22;;;;;;;;;;;;;;;27.94;33.39;94950.47;4882243;29;8506;-62
2022/07/17 10:39:57;;;;;;;;;;;;;;;27.96;33.84;94949.97;4890572;29;9451;-62
2022/07/17 10:42:41;;;;;;;;;;;;;;;27.98;33.69;94953.75;4860409;29;7260;-62
2022/07/17 10:45:18;;;;;;;;;;;;;;;27.97;33.79;94945.94;4858527;29;7393;-62
2022/07/17 10:48:02;;;;;;;;;;;;;;;27.99;33.89;94954.50;4862503;29;7631;-62
2022/07/17 10:50:35;;;;;;;;;;;;;;;28.01;34.12;94943.69;4877995;29;7416;-62
2022/07/17 10:53:04;;;;;;;;;;;;;;;28.00;34.13;94944.94;4857330;29;7904;-62
2022/07/17 10:55:33;;;;;;;;;;;;;;;28.01;34.06;94943.69;4869973;29;7247;-62
2022/07/17 10:58:04;;;;;;;;;;;;;;;28.04;34.04;94943.38;4891175;29;7403;-62
2022/07/17 11:00:30;;;;;;;;;;;;;;;28.03;34.09;94944.66;4939888;28;7734;-62
2022/07/17 11:03:12;;;;;;;;;;;;;;;28.04;34.30;94945.41;4995756;28;8704;-62
2022/07/17 11:05:39;;;;;;;;;;;;;;;28.06;34.63;94938.09;4994364;28;9359;-62
2022/07/17 11:08:17;;;;;;;;;;;;;;;28.05;34.40;94944.16;5012713;28;8845;-62
2022/07/17 11:10:55;;;;;;;;;;;;;;;28.08;34.07;94954.16;5010053;28;7474;-62
2022/07/17 11:13:21;;;;;;;;;;;;;;;28.07;34.22;94941.63;4992708;28;8982;-62
2022/07/17 11:15:48;;;;;;;;;;;;;;;28.11;34.82;94959.44;5009077;28;6980;-62
2022/07/17 11:18:22;;;;;;;;;;;;;;;28.10;34.15;94957.91;4993181;28;9425;-62
2022/07/17 11:20:59;;;;;;;;;;;;;;;28.12;34.00;94958.16;4990972;28;8683;-61
2022/07/17 11:23:51;;;;;;;;;;;;;;;28.15;34.65;94953.63;5005096;28;7045;-62
2022/07/17 11:26:29;;;;;;;;;;;;;;;28.16;34.62;94957.91;4985346;28;7118;-61
2022/07/17 11:28:57;;;;;;;;;;;;;;;28.15;34.28;94956.38;5001648;28;7285;-61
2022/07/17 11:31:42;;;;;;;;;;;;;;;28.18;34.91;94955.38;4994940;28;9184;-62
2022/07/17 11:34:12;;;;;;;;;;;;;;;28.17;34.89;94945.53;5004315;28;7269;-62
2022/07/17 11:36:44;;;;;;;;;;;;;;;28.17;35.12;94954.59;4998152;28;7377;-62
2022/07/17 11:39:16;;;;;;;;;;;;;;;28.20;35.29;94950.06;4991537;28;7333;-62
2022/07/17 11:41:46;;;;;;;;;;;;;;;28.19;34.96;94945.78;5015904;28;9211;-62
2022/07/17 11:44:14;;;;;;;;;;;;;;;28.19;35.17;94945.78;4997556;28;7175;-62
2022/07/17 11:46:46;;;;;;;;;;;;;;;28.20;35.07;94941.75;5006539;28;7015;-62
2022/07/17 11:49:25;;;;;;;;;;;;;;;28.21;34.91;94932.19;5011528;28;7684;-62
2022/07/17 11:51:55;;;;;;;;;;;;;;;28.22;35.61;94931.69;5000279;28;7594;-62
2022/07/17 11:54:46;;;;;;;;;;;;;;;28.23;35.16;94933.19;5011130;28;9223;-63
2022/07/17 11:57:14;;;;;;;;;;;;;;;28.25;35.28;94940.97;5008767;28;6989;-62
2022/07/17 11:59:41;;;;;;;;;;;;;;;28.24;35.57;94936.69;4992490;28;8715;-61
2022/07/17 12:02:13;;;;;;;;;;;;;;;28.25;35.44;94930.66;4990345;28;7880;-61
2022/07/17 12:04:54;;;;;;;;;;;;;;;28.26;35.40;94934.91;4987238;28;6998;-61
2022/07/17 12:07:25;;;;;;;;;;;;;;;28.24;35.36;94942.22;4985056;28;7298;-61
2022/07/17 12:09:53;;;;;;;;;;;;;;;28.26;35.27;94936.94;4988990;28;9288;-61
2022/07/17 12:12:21;;;;;;;;;;;;;;;28.26;35.13;94939.69;4990755;28;9345;-61
2022/07/17 12:14:54;;;;;;;;;;;;;;;28.27;35.25;94941.22;5006536;28;9169;-61
2022/07/17 12:17:20;;;;;;;;;;;;;;;28.28;35.20;94931.63;4987905;28;8149;-61
2022/07/17 12:19:53;;;;;;;;;;;;;;;28.28;35.13;94931.63;5002646;28;9542;-62
2022/07/17 12:22:19;;;;;;;;;;;;;;;28.26;34.54;94934.91;5004748;28;8951;-62
2022/07/17 12:24:49;;;;;;;;;;;;;;;28.25;34.36;94936.19;4989385;28;9085;-62
2022/07/17 12:27:19;;;;;;;;;;;;;;;28.29;34.08;94933.16;4985637;28;7677;-62
2022/07/17 12:29:47;;;;;;;;;;;;;;;28.28;34.51;94932.38;4987528;28;9658;-62
2022/07/17 12:32:15;;;;;;;;;;;;;;;28.28;34.58;94948.22;5007635;28;9139;-62
2022/07/17 12:34:47;;;;;;;;;;;;;;;28.27;34.42;94930.88;5004232;28;8241;-62
2022/07/17 12:37:23;;;;;;;;;;;;;;;28.30;34.26;94929.09;5000808;28;7073;-62
2022/07/17 12:39:50;;;;;;;;;;;;;;;28.33;34.51;94928.06;4993450;28;7208;-62
2022/07/17 12:42:16;;;;;;;;;;;;;;;28.34;34.38;94919.25;5014408;28;6999;-61
2022/07/17 12:44:44;;;;;;;;;;;;;;;28.33;33.75;94922.53;5008899;28;7245;-61
2022/07/17 12:47:17;;;;;;;;;;;;;;;28.33;34.32;94923.31;5000519;28;7197;-62
2022/07/17 12:49:43;;;;;;;;;;;;;;;28.32;34.38;94915.50;5007986;28;9085;-62
2022/07/17 12:52:16;;;;;;;;;;;;;;;28.37;34.41;94917.47;5008722;28;8791;-62
2022/07/17 12:54:42;;;;;;;;;;;;;;;28.38;33.94;94914.19;5021826;28;7307;-62
2022/07/17 12:57:16;;;;;;;;;;;;;;;28.41;34.25;94922.72;5018059;28;6941;-62
2022/07/17 12:59:58;;;;;;;;;;;;;;;28.41;33.92;94920.69;4991926;28;7318;-62
2022/07/17 13:02:26;;;;;;;;;;;;;;;28.42;34.12;94924.22;5007656;28;9089;-62
2022/07/17 13:04:52;;;;;;;;;;;;;;;28.40;34.34;94916.44;5008125;28;7548;-63
2022/07/17 13:07:40;;;;;;;;;;;;;;;28.38;33.83;94916.22;5003016;28;8708;-63
2022/07/17 13:10:07;;;;;;;;;;;;;;;28.38;34.11;94919.00;4988326;28;7238;-63
2022/07/17 13:12:35;;;;;;;;;;;;;;;28.41;33.77;94917.19;4978040;28;9560;-63
2022/07/17 13:15:12;;;;;;;;;;;;;;;28.42;33.91;94913.16;5007807;28;6913;-62
2022/07/17 13:17:46;;;;;;;;;;;;;;;28.45;33.59;94912.88;5002041;28;6987;-63
2022/07/17 13:20:20;;;;;;;;;;;;;;;28.45;34.17;94906.59;4985078;28;7058;-63